Time;durP1;ratioP1;P1;durP2;ratioP2;P2;SDS_P1;SDS_P2;PMS_P1;PMS_P2;Temp;Humidity;BMP_temperature;BMP_pressure;BME280_temperature;BME280_humidity;BME280_pressure;Samples;Min_cycle;Max_cycle;Signal;HPM_P1;HPM_P2
2021/11/05 00:00:51;;;;;;;1999.90;999.90;;;8.50;99.90;;;;;;5053309;28;20407;-75
2021/11/05 00:03:17;;;;;;;1999.90;999.90;;;8.50;99.90;;;;;;5053470;28;20542;-75
2021/11/05 00:05:42;;;;;;;1999.90;999.90;;;8.40;99.90;;;;;;5053370;28;20514;-75
2021/11/05 00:08:08;;;;;;;1999.90;999.90;;;8.50;99.90;;;;;;5035489;28;20172;-75
2021/11/05 00:10:39;;;;;;;1999.90;999.90;;;8.50;99.90;;;;;;5053157;28;20164;-74
2021/11/05 00:13:05;;;;;;;1999.90;999.90;;;8.40;99.90;;;;;;5053335;28;20164;-75
2021/11/05 00:15:30;;;;;;;1999.90;999.90;;;8.40;99.90;;;;;;5053214;28;20983;-75
2021/11/05 00:17:56;;;;;;;1999.90;999.90;;;8.30;99.90;;;;;;5053215;28;20446;-74
2021/11/05 00:20:22;;;;;;;1999.90;999.90;;;8.30;99.90;;;;;;5053083;28;20243;-74
2021/11/05 00:22:47;;;;;;;1999.90;999.90;;;8.20;99.90;;;;;;5053116;28;20164;-74
2021/11/05 00:25:13;;;;;;;1999.90;999.90;;;8.30;99.90;;;;;;5053158;28;20602;-74
2021/11/05 00:27:39;;;;;;;1999.90;999.90;;;8.30;99.90;;;;;;5052979;28;20586;-75
2021/11/05 00:30:09;;;;;;;1999.90;999.90;;;8.30;99.90;;;;;;5052273;28;20508;-75
2021/11/05 00:32:35;;;;;;;1999.90;999.90;;;8.30;99.90;;;;;;5052904;28;20399;-75
2021/11/05 00:35:01;;;;;;;1999.90;999.90;;;8.30;99.90;;;;;;5052873;28;20431;-75
2021/11/05 00:37:27;;;;;;;1999.90;999.90;;;8.30;99.90;;;;;;5052751;28;20446;-75
2021/11/05 00:39:52;;;;;;;1999.90;999.90;;;8.30;99.90;;;;;;5052571;28;20641;-75
2021/11/05 00:42:18;;;;;;;1999.90;999.90;;;8.30;99.90;;;;;;5052674;28;20164;-74
2021/11/05 00:44:44;;;;;;;1999.90;999.90;;;8.30;99.90;;;;;;5052676;28;20192;-74
2021/11/05 00:47:10;;;;;;;1999.90;999.90;;;8.30;99.90;;;;;;5052698;28;20797;-75
2021/11/05 00:49:35;;;;;;;1999.90;999.90;;;8.30;99.90;;;;;;5052419;28;20642;-75
2021/11/05 00:52:01;;;;;;;1999.90;999.90;;;8.40;99.90;;;;;;5052518;28;20409;-75
2021/11/05 00:54:27;;;;;;;1999.90;999.90;;;8.40;99.90;;;;;;5052356;28;20215;-75
2021/11/05 00:56:52;;;;;;;1999.90;999.90;;;8.50;99.90;;;;;;5052393;28;20169;-74
2021/11/05 00:59:18;;;;;;;1999.90;999.90;;;8.50;99.90;;;;;;5052217;28;20226;-75
2021/11/05 01:01:44;;;;;;;1999.90;999.90;;;8.60;99.90;;;;;;5052375;28;20238;-75
2021/11/05 01:04:09;;;;;;;1999.90;999.90;;;8.70;99.90;;;;;;5052296;28;20216;-75
2021/11/05 01:06:35;;;;;;;1999.90;999.90;;;8.80;99.90;;;;;;5052348;28;20689;-75
2021/11/05 01:09:02;;;;;;;1999.90;999.90;;;8.80;99.90;;;;;;5052047;28;20160;-74
2021/11/05 01:11:28;;;;;;;1999.90;999.90;;;8.90;99.90;;;;;;5052259;28;20160;-75
2021/11/05 01:13:53;;;;;;;1999.90;999.90;;;8.90;99.90;;;;;;5052020;28;20398;-74
2021/11/05 01:16:19;;;;;;;1999.90;999.90;;;8.80;99.90;;;;;;5052391;28;20251;-74
2021/11/05 01:18:46;;;;;;;1999.90;999.90;;;8.80;99.90;;;;;;5052158;28;20196;-74
2021/11/05 01:21:12;;;;;;;1999.90;999.90;;;8.80;99.90;;;;;;5052213;28;20160;-74
2021/11/05 01:23:38;;;;;;;1999.90;999.90;;;8.70;99.90;;;;;;5052205;28;20456;-75
2021/11/05 01:26:03;;;;;;;1999.90;999.90;;;8.70;99.90;;;;;;5052028;28;20192;-75
2021/11/05 01:28:29;;;;;;;1999.90;999.90;;;8.70;99.90;;;;;;5052045;28;20195;-74
2021/11/05 01:30:56;;;;;;;1999.90;999.90;;;8.70;99.90;;;;;;5051840;28;20197;-75
2021/11/05 01:33:22;;;;;;;1999.90;999.90;;;8.70;99.90;;;;;;5051955;28;20442;-74
2021/11/05 01:35:49;;;;;;;1999.90;999.90;;;8.70;99.90;;;;;;5051763;28;20193;-74
2021/11/05 01:38:14;;;;;;;1999.90;999.90;;;8.70;99.90;;;;;;5051821;28;20512;-75
2021/11/05 01:40:42;;;;;;;1999.90;999.90;;;8.80;99.90;;;;;;5050754;28;20403;-74
2021/11/05 01:43:08;;;;;;;1999.90;999.90;;;8.90;99.90;;;;;;5051854;28;20962;-74
2021/11/05 01:45:34;;;;;;;1999.90;999.90;;;8.80;99.90;;;;;;5051675;28;20475;-74
2021/11/05 01:48:00;;;;;;;1999.90;999.90;;;8.90;99.90;;;;;;5051793;28;20402;-74
2021/11/05 01:50:27;;;;;;;1999.90;999.90;;;8.90;99.90;;;;;;5051441;28;20190;-74
2021/11/05 01:52:53;;;;;;;1999.90;999.90;;;8.80;99.90;;;;;;5051539;28;20441;-74
2021/11/05 01:55:19;;;;;;;1999.90;999.90;;;8.70;99.90;;;;;;5051665;28;20434;-74
2021/11/05 01:57:45;;;;;;;1999.90;999.90;;;8.60;99.90;;;;;;5051579;28;20462;-74
2021/11/05 02:00:15;;;;;;;1999.90;999.90;;;8.60;99.90;;;;;;5051411;28;20169;-74
2021/11/05 02:02:41;;;;;;;1999.90;999.90;;;8.60;99.90;;;;;;5051571;28;20414;-74
2021/11/05 02:05:07;;;;;;;1999.90;999.90;;;8.60;99.90;;;;;;5051511;28;20422;-74
2021/11/05 02:07:35;;;;;;;1999.90;999.90;;;8.50;99.90;;;;;;5051634;28;20409;-74
2021/11/05 02:10:04;;;;;;;1999.90;999.90;;;8.50;99.90;;;;;;5051322;28;20413;-74
2021/11/05 02:12:30;;;;;;;1999.90;999.90;;;8.40;99.90;;;;;;5051511;28;20827;-74
2021/11/05 02:15:00;;;;;;;1999.90;999.90;;;8.30;99.90;;;;;;5051437;28;20438;-74
2021/11/05 02:17:26;;;;;;;1999.90;999.90;;;8.40;99.90;;;;;;5051403;28;21026;-74
2021/11/05 02:19:52;;;;;;;1999.90;999.90;;;8.40;99.90;;;;;;5051229;28;20406;-74
2021/11/05 02:22:19;;;;;;;1999.90;999.90;;;8.40;99.90;;;;;;5051429;28;20402;-74
2021/11/05 02:24:45;;;;;;;1999.90;999.90;;;8.30;99.90;;;;;;5051321;28;20470;-73
2021/11/05 02:27:11;;;;;;;1999.90;999.90;;;8.30;99.90;;;;;;5051362;28;20418;-74
2021/11/05 02:29:37;;;;;;;1999.90;999.90;;;8.20;99.90;;;;;;5051131;28;20445;-74
2021/11/05 02:32:04;;;;;;;1999.90;999.90;;;8.30;99.90;;;;;;5051297;28;20184;-74
2021/11/05 02:34:31;;;;;;;1999.90;999.90;;;8.30;99.90;;;;;;5051248;28;21002;-73
2021/11/05 02:36:58;;;;;;;1999.90;999.90;;;8.30;99.90;;;;;;5051193;28;20425;-74
2021/11/05 02:39:24;;;;;;;1999.90;999.90;;;8.30;99.90;;;;;;5050968;28;20425;-74
2021/11/05 02:41:52;;;;;;;1999.90;999.90;;;8.30;99.90;;;;;;5051273;28;20441;-74
2021/11/05 02:44:18;;;;;;;1999.90;999.90;;;8.40;99.90;;;;;;5051128;28;20430;-74
2021/11/05 02:46:44;;;;;;;1999.90;999.90;;;8.40;99.90;;;;;;5051171;28;20429;-74
2021/11/05 02:49:13;;;;;;;1999.90;999.90;;;8.30;99.90;;;;;;5050944;28;20406;-74
2021/11/05 02:51:39;;;;;;;1999.90;999.90;;;8.30;99.90;;;;;;5052078;28;20165;-74
2021/11/05 02:54:06;;;;;;;1999.90;999.90;;;8.30;99.90;;;;;;5054523;28;20452;-74
2021/11/05 02:56:31;;;;;;;1999.90;999.90;;;8.40;99.90;;;;;;5054766;28;20409;-74
2021/11/05 02:59:00;;;;;;;1999.90;999.90;;;8.40;99.90;;;;;;5054547;28;20449;-74
2021/11/05 03:01:27;;;;;;;1999.90;999.90;;;8.30;99.90;;;;;;5054703;28;20207;-74
2021/11/05 03:03:53;;;;;;;1999.90;999.90;;;8.30;99.90;;;;;;5054455;28;20456;-74
2021/11/05 03:06:19;;;;;;;1999.90;999.90;;;8.30;99.90;;;;;;5054618;28;20406;-74
2021/11/05 03:08:44;;;;;;;1999.90;999.90;;;8.30;99.90;;;;;;5054560;28;20502;-74
2021/11/05 03:11:12;;;;;;;1999.90;999.90;;;8.30;99.90;;;;;;5054231;28;20180;-72
2021/11/05 03:13:43;;;;;;;1999.90;999.90;;;8.30;99.90;;;;;;5054400;28;20588;-72
2021/11/05 03:16:09;;;;;;;1999.90;999.90;;;8.30;99.90;;;;;;5054476;28;20406;-72
2021/11/05 03:18:39;;;;;;;1999.90;999.90;;;8.30;99.90;;;;;;5054326;28;20498;-72
2021/11/05 03:21:06;;;;;;;1999.90;999.90;;;8.30;99.90;;;;;;5054063;28;20410;-72
2021/11/05 03:23:31;;;;;;;1999.90;999.90;;;8.30;99.90;;;;;;5054224;28;20407;-72
2021/11/05 03:25:57;;;;;;;1999.90;999.90;;;8.30;99.90;;;;;;5054167;28;20572;-72
2021/11/05 03:28:23;;;;;;;1999.90;999.90;;;8.30;99.90;;;;;;5054155;28;20445;-72
2021/11/05 03:30:48;;;;;;;1999.90;999.90;;;8.40;99.90;;;;;;5053930;28;20193;-72
2021/11/05 03:33:14;;;;;;;1999.90;999.90;;;8.30;99.90;;;;;;5054088;28;20530;-72
2021/11/05 03:35:40;;;;;;;1999.90;999.90;;;8.30;99.90;;;;;;5054007;28;20541;-72
2021/11/05 03:38:06;;;;;;;1999.90;999.90;;;8.30;99.90;;;;;;5053933;28;20566;-72
2021/11/05 03:40:33;;;;;;;1999.90;999.90;;;8.20;99.90;;;;;;5053681;28;20489;-72
2021/11/05 03:42:59;;;;;;;1999.90;999.90;;;8.20;99.90;;;;;;5053878;28;20171;-72
2021/11/05 03:45:25;;;;;;;1999.90;999.90;;;8.20;99.90;;;;;;5053762;28;20427;-72
2021/11/05 03:47:50;;;;;;;1999.90;999.90;;;8.30;99.90;;;;;;5053805;28;20406;-72
2021/11/05 03:50:16;;;;;;;1999.90;999.90;;;8.30;99.90;;;;;;5053498;28;20175;-72
2021/11/05 03:52:42;;;;;;;1999.90;999.90;;;8.30;99.90;;;;;;5053584;28;20584;-72
2021/11/05 03:55:10;;;;;;;1999.90;999.90;;;8.30;99.90;;;;;;5053644;28;20224;-72
2021/11/05 03:57:36;;;;;;;1999.90;999.90;;;8.40;99.90;;;;;;5053560;28;20446;-72
2021/11/05 04:00:04;;;;;;;1999.90;999.90;;;8.30;99.90;;;;;;5053364;28;21013;-72
2021/11/05 04:02:30;;;;;;;1999.90;999.90;;;8.30;99.90;;;;;;5053336;28;20200;-72
2021/11/05 04:04:56;;;;;;;1999.90;999.90;;;8.30;99.90;;;;;;5052684;28;20457;-72
2021/11/05 04:07:22;;;;;;;1999.90;999.90;;;8.30;99.90;;;;;;5053442;28;20219;-72
2021/11/05 04:09:48;;;;;;;1999.90;999.90;;;8.30;99.90;;;;;;5053157;28;20173;-72
2021/11/05 04:12:14;;;;;;;1999.90;999.90;;;8.40;99.90;;;;;;5053268;28;20968;-72
2021/11/05 04:14:40;;;;;;;1999.90;999.90;;;8.30;99.90;;;;;;5053557;28;20708;-72
2021/11/05 04:17:06;;;;;;;1999.90;999.90;;;8.30;99.90;;;;;;5053212;28;20822;-72
2021/11/05 04:19:32;;;;;;;1999.90;999.90;;;8.30;99.90;;;;;;5052998;28;20402;-72
2021/11/05 04:21:58;;;;;;;1999.90;999.90;;;8.30;99.90;;;;;;5053168;28;20168;-72
2021/11/05 04:24:23;;;;;;;1999.90;999.90;;;8.40;99.90;;;;;;5053026;28;20184;-72
2021/11/05 04:26:49;;;;;;;1999.90;999.90;;;8.40;99.90;;;;;;5053104;28;20790;-72
2021/11/05 04:29:17;;;;;;;1999.90;999.90;;;8.40;99.90;;;;;;5052692;28;20693;-72
2021/11/05 04:31:44;;;;;;;1999.90;999.90;;;8.50;99.90;;;;;;5052996;28;20425;-72
2021/11/05 04:34:10;;;;;;;1999.90;999.90;;;8.50;99.90;;;;;;5052823;28;20461;-72
2021/11/05 04:36:36;;;;;;;1999.90;999.90;;;8.50;99.90;;;;;;5052915;28;20412;-72
2021/11/05 04:39:03;;;;;;;1999.90;999.90;;;8.50;99.90;;;;;;5052672;28;20556;-72
2021/11/05 04:41:29;;;;;;;1999.90;999.90;;;8.60;99.90;;;;;;5034957;28;20934;-72
2021/11/05 04:43:54;;;;;;;1999.90;999.90;;;8.60;99.90;;;;;;5052673;28;20407;-71
2021/11/05 04:46:20;;;;;;;1999.90;999.90;;;8.60;99.90;;;;;;5052726;28;20203;-72
2021/11/05 04:48:45;;;;;;;1999.90;999.90;;;8.60;99.90;;;;;;5052669;28;20259;-72
2021/11/05 04:51:11;;;;;;;1999.90;999.90;;;8.50;99.90;;;;;;5082196;22;20279;-76
2021/11/05 04:53:37;;;;;;;1999.90;999.90;;;8.40;99.90;;;;;;5032720;28;20166;-75
2021/11/05 04:56:02;;;;;;;1999.90;999.90;;;8.40;99.90;;;;;;5032758;28;20168;-74
2021/11/05 04:58:28;;;;;;;1999.90;999.90;;;8.30;99.90;;;;;;5032564;28;20201;-76
2021/11/05 05:00:54;;;;;;;1999.90;999.90;;;8.30;99.90;;;;;;5032384;28;21112;-76
2021/11/05 05:03:19;;;;;;;1999.90;999.90;;;8.40;99.90;;;;;;5032515;28;20180;-76
2021/11/05 05:05:45;;;;;;;1999.90;999.90;;;8.40;99.90;;;;;;5032583;28;20165;-75
2021/11/05 05:08:11;;;;;;;1999.90;999.90;;;8.30;99.90;;;;;;5032356;28;20177;-76
2021/11/05 05:10:36;;;;;;;1999.90;999.90;;;8.40;99.90;;;;;;5032209;28;20194;-75
2021/11/05 05:13:02;;;;;;;1999.90;999.90;;;8.40;99.90;;;;;;5032404;28;20168;-76
2021/11/05 05:15:28;;;;;;;1999.90;999.90;;;8.50;99.90;;;;;;5032253;28;20169;-76
2021/11/05 05:17:54;;;;;;;1999.90;999.90;;;8.40;99.90;;;;;;5032243;28;20505;-76
2021/11/05 05:20:20;;;;;;;1999.90;999.90;;;8.50;99.90;;;;;;5031984;28;20180;-76
2021/11/05 05:22:46;;;;;;;1999.90;999.90;;;8.40;99.90;;;;;;5032196;28;20179;-75
2021/11/05 05:25:14;;;;;;;1999.90;999.90;;;8.50;99.90;;;;;;5032257;28;20403;-76
2021/11/05 05:27:42;;;;;;;1999.90;999.90;;;8.50;99.90;;;;;;5032168;28;20407;-75
2021/11/05 05:30:10;;;;;;;1999.90;999.90;;;8.50;99.90;;;;;;5031465;28;20725;-75
2021/11/05 05:32:36;;;;;;;1999.90;999.90;;;8.60;99.90;;;;;;5032045;28;20404;-76
2021/11/05 05:35:02;;;;;;;1999.90;999.90;;;8.60;99.90;;;;;;5032056;28;20423;-76
2021/11/05 05:37:27;;;;;;;1999.90;999.90;;;8.60;99.90;;;;;;5031858;28;20238;-75
2021/11/05 05:39:53;;;;;;;1999.90;999.90;;;8.50;99.90;;;;;;5031866;28;20851;-76
2021/11/05 05:42:19;;;;;;;1999.90;999.90;;;8.50;99.90;;;;;;5032109;28;20196;-76
2021/11/05 05:44:44;;;;;;;1999.90;999.90;;;8.40;99.90;;;;;;5031977;28;20176;-76
2021/11/05 05:47:10;;;;;;;1999.90;999.90;;;8.40;99.90;;;;;;5031931;28;20961;-76
2021/11/05 05:49:36;;;;;;;1999.90;999.90;;;8.40;99.90;;;;;;5031584;28;20214;-75
2021/11/05 05:52:02;;;;;;;1999.90;999.90;;;8.30;99.90;;;;;;5031516;28;20219;-76
2021/11/05 05:54:27;;;;;;;1999.90;999.90;;;8.30;99.90;;;;;;5031820;28;20173;-76
2021/11/05 05:56:53;;;;;;;1999.90;999.90;;;8.30;99.90;;;;;;5031785;28;20419;-76
2021/11/05 05:59:19;;;;;;;1999.90;999.90;;;8.30;99.90;;;;;;5031648;28;20515;-74
2021/11/05 06:01:45;;;;;;;1999.90;999.90;;;8.30;99.90;;;;;;5031593;28;20196;-75
2021/11/05 06:04:11;;;;;;;1999.90;999.90;;;8.30;99.90;;;;;;5031676;28;20412;-76
2021/11/05 06:06:36;;;;;;;1999.90;999.90;;;8.30;99.90;;;;;;5031633;28;20439;-75
2021/11/05 06:09:02;;;;;;;1999.90;999.90;;;8.30;99.90;;;;;;5031656;28;20211;-76
2021/11/05 06:11:28;;;;;;;1999.90;999.90;;;8.30;99.90;;;;;;5031369;28;20204;-77
2021/11/05 06:13:54;;;;;;;1999.90;999.90;;;8.30;99.90;;;;;;5031747;28;20201;-76
2021/11/05 06:16:19;;;;;;;1999.90;999.90;;;8.30;99.90;;;;;;5031661;28;20172;-76
2021/11/05 06:18:45;;;;;;;1999.90;999.90;;;8.30;99.90;;;;;;5031577;28;20205;-76
2021/11/05 06:21:11;;;;;;;1999.90;999.90;;;8.30;99.90;;;;;;5031026;28;20196;-75
2021/11/05 06:23:36;;;;;;;1999.90;999.90;;;8.30;99.90;;;;;;5031384;28;20509;-75
2021/11/05 06:26:03;;;;;;;1999.90;999.90;;;8.40;99.90;;;;;;5031595;28;20189;-75
2021/11/05 06:28:28;;;;;;;1999.90;999.90;;;8.30;99.90;;;;;;5035404;28;20180;-75
2021/11/05 06:30:54;;;;;;;1999.90;999.90;;;8.30;99.90;;;;;;5035068;28;20834;-75
2021/11/05 06:33:19;;;;;;;1999.90;999.90;;;8.30;99.90;;;;;;5035298;28;20260;-75
2021/11/05 06:35:46;;;;;;;1999.90;999.90;;;8.40;99.90;;;;;;5035217;28;20176;-75
2021/11/05 06:38:13;;;;;;;1999.90;999.90;;;8.40;99.90;;;;;;5035194;28;20674;-75
2021/11/05 06:40:39;;;;;;;1999.90;999.90;;;8.40;99.90;;;;;;5034928;28;20439;-75
2021/11/05 06:43:06;;;;;;;1999.90;999.90;;;8.50;99.90;;;;;;5035143;28;20511;-75
2021/11/05 06:45:31;;;;;;;1999.90;999.90;;;8.50;99.90;;;;;;5035160;28;20451;-75
2021/11/05 06:47:57;;;;;;;1999.90;999.90;;;8.50;99.90;;;;;;5035133;28;20442;-75
2021/11/05 06:50:23;;;;;;;1999.90;999.90;;;8.50;99.90;;;;;;5034495;28;20713;-75
2021/11/05 06:52:48;;;;;;;1999.90;999.90;;;8.60;99.90;;;;;;5035111;28;20646;-75
2021/11/05 06:55:14;;;;;;;1999.90;999.90;;;8.70;99.90;;;;;;5034980;28;20610;-75
2021/11/05 06:57:40;;;;;;;1999.90;999.90;;;8.70;99.90;;;;;;5034881;28;20704;-75
2021/11/05 07:00:09;;;;;;;1999.90;999.90;;;8.60;99.90;;;;;;5034615;28;20437;-74
2021/11/05 07:02:40;;;;;;;1999.90;999.90;;;8.70;99.90;;;;;;5034874;28;20467;-75
2021/11/05 07:05:07;;;;;;;1999.90;999.90;;;8.70;99.90;;;;;;5034894;28;20386;-75
2021/11/05 07:07:32;;;;;;;1999.90;999.90;;;8.80;99.90;;;;;;5034835;28;20785;-75
2021/11/05 07:09:58;;;;;;;1999.90;999.90;;;8.70;99.90;;;;;;5034417;28;20483;-74
2021/11/05 07:12:23;;;;;;;1999.90;999.90;;;8.80;99.90;;;;;;5034672;28;20603;-75
2021/11/05 07:14:49;;;;;;;1999.90;999.90;;;8.70;99.90;;;;;;5034729;28;20510;-74
2021/11/05 07:17:15;;;;;;;1999.90;999.90;;;8.60;99.90;;;;;;5034432;28;20190;-75
2021/11/05 07:19:40;;;;;;;1999.90;999.90;;;8.50;99.90;;;;;;5034242;28;20174;-75
2021/11/05 07:22:06;;;;;;;1999.90;999.90;;;8.60;99.90;;;;;;5034478;28;20193;-74
2021/11/05 07:24:35;;;;;;;1999.90;999.90;;;8.50;99.90;;;;;;5034432;28;20668;-74
2021/11/05 07:27:01;;;;;;;1999.90;999.90;;;8.50;99.90;;;;;;5034434;28;20461;-75
2021/11/05 07:29:28;;;;;;;1999.90;999.90;;;8.50;99.90;;;;;;5034253;28;20419;-74
2021/11/05 07:32:02;;;;;;;1999.90;999.90;;;8.60;99.90;;;;;;5034177;28;20426;-75
2021/11/05 07:34:32;;;;;;;1999.90;999.90;;;8.60;99.90;;;;;;5034274;28;20422;-75
2021/11/05 07:37:03;;;;;;;1999.90;999.90;;;8.60;99.90;;;;;;5034242;28;20495;-75
2021/11/05 07:39:29;;;;;;;1999.90;999.90;;;8.60;99.90;;;;;;5032755;28;20476;-74
2021/11/05 07:41:56;;;;;;;1999.90;999.90;;;8.60;99.90;;;;;;5033999;28;20427;-75
2021/11/05 07:44:22;;;;;;;1999.90;999.90;;;8.70;99.90;;;;;;5033986;28;20404;-75
2021/11/05 07:46:47;;;;;;;1999.90;999.90;;;8.70;99.90;;;;;;5033058;28;20909;-75
2021/11/05 07:49:14;;;;;;;1999.90;999.90;;;8.70;99.90;;;;;;5033932;28;20419;-75
2021/11/05 07:51:40;;;;;;;1999.90;999.90;;;8.70;99.90;;;;;;5033598;28;20266;-75
2021/11/05 07:54:07;;;;;;;1999.90;999.90;;;8.70;99.90;;;;;;5033952;28;20498;-75
2021/11/05 07:56:34;;;;;;;1999.90;999.90;;;8.70;99.90;;;;;;5033766;28;20439;-75
2021/11/05 07:59:00;;;;;;;1999.90;999.90;;;8.70;99.90;;;;;;5033690;28;20831;-75
2021/11/05 08:01:26;;;;;;;1999.90;999.90;;;8.70;99.90;;;;;;5033419;28;20441;-75
2021/11/05 08:03:51;;;;;;;1999.90;999.90;;;8.80;99.90;;;;;;5033655;28;20483;-74
2021/11/05 08:06:17;;;;;;;1999.90;999.90;;;8.80;99.90;;;;;;5033633;28;20185;-75
2021/11/05 08:08:43;;;;;;;1999.90;999.90;;;8.90;99.90;;;;;;5033681;28;20639;-75
2021/11/05 08:11:10;;;;;;;1999.90;999.90;;;9.00;99.90;;;;;;5033159;28;20467;-74
2021/11/05 08:13:36;;;;;;;1999.90;999.90;;;9.00;99.90;;;;;;5033331;28;20251;-75
2021/11/05 08:16:02;;;;;;;1999.90;999.90;;;9.00;99.90;;;;;;5033493;28;20413;-75
2021/11/05 08:18:28;;;;;;;1999.90;999.90;;;9.10;99.90;;;;;;5033302;28;20459;-74
2021/11/05 08:20:54;;;;;;;1999.90;999.90;;;9.10;99.90;;;;;;5033088;28;20534;-75
2021/11/05 08:23:20;;;;;;;1999.90;999.90;;;9.10;99.90;;;;;;5033311;28;20196;-75
2021/11/05 08:25:47;;;;;;;1999.90;999.90;;;9.20;99.90;;;;;;5033297;28;20413;-75
2021/11/05 08:28:14;;;;;;;1999.90;999.90;;;9.20;99.90;;;;;;5032978;28;20169;-75
2021/11/05 08:30:40;;;;;;;1999.90;999.90;;;9.20;99.90;;;;;;5032912;28;20515;-75
2021/11/05 08:33:06;;;;;;;1999.90;999.90;;;9.30;99.90;;;;;;5033319;28;20495;-75
2021/11/05 08:35:32;;;;;;;1999.90;999.90;;;9.40;99.90;;;;;;5033150;28;20166;-75
2021/11/05 08:38:00;;;;;;;1999.90;999.90;;;9.40;99.90;;;;;;5033139;28;20228;-75
2021/11/05 08:40:25;;;;;;;1999.90;999.90;;;9.40;99.90;;;;;;5032751;28;20435;-75
2021/11/05 08:42:52;;;;;;;1999.90;999.90;;;9.50;99.90;;;;;;5032866;28;20410;-75
2021/11/05 08:45:18;;;;;;;1999.90;999.90;;;9.50;99.90;;;;;;5032930;28;20180;-75
2021/11/05 08:47:44;;;;;;;1999.90;999.90;;;9.50;99.90;;;;;;5033020;28;20474;-75
2021/11/05 08:50:21;;;;;;;1999.90;999.90;;;9.50;99.90;;;;;;5032012;28;20414;-75
2021/11/05 08:52:47;;;;;;;1999.90;999.90;;;9.50;99.90;;;;;;5032734;28;20176;-74
2021/11/05 08:55:14;;;;;;;1999.90;999.90;;;9.60;99.90;;;;;;5032661;28;20409;-74
2021/11/05 08:57:40;;;;;;;1999.90;999.90;;;9.60;99.90;;;;;;5032669;28;20587;-74
2021/11/05 09:00:14;;;;;;;1999.90;999.90;;;9.70;99.90;;;;;;5032373;28;20504;-75
2021/11/05 09:02:41;;;;;;;1999.90;999.90;;;9.80;99.90;;;;;;5032555;28;20493;-75
2021/11/05 09:05:07;;;;;;;1999.90;999.90;;;9.90;99.90;;;;;;5032903;28;20879;-75
2021/11/05 09:07:33;;;;;;;1999.90;999.90;;;10.00;99.90;;;;;;5032467;28;20399;-75
2021/11/05 09:09:59;;;;;;;1999.90;999.90;;;10.10;99.90;;;;;;5032081;28;20468;-75
2021/11/05 09:12:25;;;;;;;1999.90;999.90;;;10.10;99.90;;;;;;5032387;28;20418;-75
2021/11/05 09:14:50;;;;;;;1999.90;999.90;;;10.20;99.90;;;;;;5032424;28;20186;-75
2021/11/05 09:17:16;;;;;;;1999.90;999.90;;;10.20;99.90;;;;;;5032321;28;20263;-75
2021/11/05 09:19:42;;;;;;;1999.90;999.90;;;10.20;99.90;;;;;;5032113;28;20607;-76
2021/11/05 09:22:07;;;;;;;1999.90;999.90;;;10.20;99.90;;;;;;5032212;28;20427;-76
2021/11/05 09:24:34;;;;;;;1999.90;999.90;;;10.20;99.90;;;;;;5032092;28;20267;-76
2021/11/05 09:27:00;;;;;;;1999.90;999.90;;;10.30;99.90;;;;;;5032520;28;20532;-76
2021/11/05 09:29:25;;;;;;;1999.90;999.90;;;10.30;99.90;;;;;;5032241;28;20442;-76
2021/11/05 09:31:51;;;;;;;1999.90;999.90;;;10.30;99.90;;;;;;5031856;28;20464;-75
2021/11/05 09:34:17;;;;;;;1999.90;999.90;;;10.30;99.90;;;;;;5032124;28;20173;-74
2021/11/05 09:36:42;;;;;;;1999.90;999.90;;;10.30;99.90;;;;;;5032108;28;20170;-76
2021/11/05 09:39:08;;;;;;;1999.90;999.90;;;10.20;99.90;;;;;;5031986;28;20198;-76
2021/11/05 09:41:34;;;;;;;1999.90;999.90;;;10.20;99.90;;;;;;5031660;28;20198;-76
2021/11/05 09:44:00;;;;;;;1999.90;999.90;;;10.40;99.90;;;;;;5031966;28;20175;-76
2021/11/05 09:46:26;;;;;;;1999.90;999.90;;;10.50;99.90;;;;;;5032104;28;20414;-76
2021/11/05 09:48:52;;;;;;;1999.90;999.90;;;10.60;99.90;;;;;;5032006;28;20898;-76
2021/11/05 09:51:17;;;;;;;1999.90;999.90;;;10.80;99.90;;;;;;5031520;28;20207;-74
2021/11/05 09:53:43;;;;;;;1999.90;999.90;;;10.90;99.90;;;;;;5031806;28;20645;-76
2021/11/05 09:56:13;;;;;;;1999.90;999.90;;;10.90;99.90;;;;;;5031907;28;20258;-75
2021/11/05 09:58:39;;;;;;;1999.90;999.90;;;10.90;99.90;;;;;;5031812;28;20576;-76
2021/11/05 10:01:06;;;;;;;1999.90;999.90;;;10.90;99.90;;;;;;5031501;28;20512;-76
2021/11/05 10:03:32;;;;;;;1999.90;999.90;;;11.00;99.90;;;;;;5035897;28;20502;-76
2021/11/05 10:05:58;;;;;;;1999.90;999.90;;;11.20;99.90;;;;;;5035795;28;20496;-75
2021/11/05 10:08:26;;;;;;;1999.90;999.90;;;11.20;99.90;;;;;;5035810;28;20829;-75
2021/11/05 10:10:51;;;;;;;1999.90;999.90;;;11.30;99.90;;;;;;5035462;28;20430;-76
2021/11/05 10:13:22;;;;;;;1999.90;999.90;;;11.40;99.90;;;;;;5035796;28;20429;-75
2021/11/05 10:15:52;;;;;;;1999.90;999.90;;;11.40;99.90;;;;;;5035702;28;20171;-75
2021/11/05 10:18:19;;;;;;;1999.90;999.90;;;11.50;99.90;;;;;;5035606;28;20468;-75
2021/11/05 10:20:47;;;;;;;1999.90;999.90;;;11.50;99.90;;;;;;5035265;28;20426;-75
2021/11/05 10:23:15;;;;;;;1999.90;999.90;;;11.50;99.90;;;;;;5035780;28;20434;-75
2021/11/05 10:25:44;;;;;;;1999.90;999.90;;;11.40;99.90;;;;;;5035515;28;20776;-75
2021/11/05 10:28:28;;;;;;;1999.90;999.90;;;11.40;99.90;;;;;;5035657;28;20417;-75
2021/11/05 10:31:03;;;;;;;1999.90;999.90;;;11.50;99.90;;;;;;5035156;28;20479;-74
2021/11/05 10:33:49;;;;;;;1999.90;999.90;;;11.40;99.90;;;;;;5035520;28;20926;-75
2021/11/05 10:36:21;;;;;;;1999.90;999.90;;;11.40;99.90;;;;;;5035367;28;20896;-75
2021/11/05 10:39:04;;;;;;;1999.90;999.90;;;11.50;99.90;;;;;;5035230;28;20457;-75
2021/11/05 10:41:32;;;;;;;1999.90;999.90;;;11.70;99.90;;;;;;5035022;28;20425;-75
2021/11/05 10:44:15;;;;;;;1999.90;999.90;;;11.80;99.90;;;;;;5035115;28;20411;-75
2021/11/05 10:46:41;;;;;;;1999.90;999.90;;;11.90;99.90;;;;;;5035241;28;20403;-75
2021/11/05 10:49:20;;;;;;;1999.90;999.90;;;12.00;99.90;;;;;;5035124;28;20410;-75
2021/11/05 10:51:46;;;;;;;1999.90;999.90;;;12.00;99.90;;;;;;5084516;22;20499;-74
2021/11/05 10:54:12;;;;;;;1999.90;999.90;;;11.90;99.90;;;;;;5055508;28;20413;-73
2021/11/05 10:56:40;;;;;;;1999.90;999.90;;;12.00;99.90;;;;;;5054871;28;20167;-73
2021/11/05 10:59:08;;;;;;;1999.90;999.90;;;12.10;99.90;;;;;;5054762;28;20535;-74
2021/11/05 11:01:42;;;;;;;1999.90;999.90;;;12.20;99.90;;;;;;5054536;28;20432;-74
2021/11/05 11:04:11;;;;;;;1999.90;999.90;;;12.30;99.90;;;;;;5054766;28;20489;-74
2021/11/05 11:06:45;;;;;;;1999.90;999.90;;;12.40;99.90;;;;;;5054621;28;20504;-75
2021/11/05 11:09:17;;;;;;;1999.90;999.90;;;12.40;99.90;;;;;;5054713;28;20409;-74
2021/11/05 11:11:42;;;;;;;1999.90;999.90;;;12.40;99.90;;;;;;5054413;28;20499;-74
2021/11/05 11:14:17;;;;;;;1999.90;999.90;;;12.60;99.90;;;;;;5054102;28;20406;-74
2021/11/05 11:16:44;;;;;;;1999.90;999.90;;;12.70;99.90;;;;;;5054554;28;20254;-75
2021/11/05 11:19:13;;;;;;;1999.90;999.90;;;12.90;99.90;;;;;;5054347;28;20452;-74
2021/11/05 11:21:54;;;;;;;1999.90;999.90;;;13.00;99.90;;;;;;5054117;28;20468;-73
2021/11/05 11:24:23;;;;;;;1999.90;999.90;;;12.80;99.90;;;;;;5054430;28;20409;-73
2021/11/05 11:26:50;;;;;;;1999.90;999.90;;;12.90;99.90;;;;;;5054335;28;20402;-74
2021/11/05 11:29:18;;;;;;;1999.90;999.90;;;13.10;99.90;;;;;;5054231;28;20410;-74
2021/11/05 11:31:45;;;;;;;1999.90;999.90;;;13.00;99.90;;;;;;5053938;28;20456;-75
2021/11/05 11:34:13;;;;;;;1999.90;999.90;;;13.00;99.90;;;;;;5054131;28;20413;-74
2021/11/05 11:36:42;;;;;;;1999.90;999.90;;;12.90;99.90;;;;;;5054161;28;20455;-74
2021/11/05 11:39:10;;;;;;;1999.90;999.90;;;12.80;99.90;;;;;;5054019;28;20445;-73
2021/11/05 11:41:36;;;;;;;1999.90;999.90;;;12.70;99.90;;;;;;5053761;28;20430;-74
2021/11/05 11:44:03;;;;;;;1999.90;999.90;;;12.70;99.90;;;;;;5053894;28;20406;-73
2021/11/05 11:46:50;;;;;;;1999.90;999.90;;;12.60;99.90;;;;;;5054091;28;20628;-73
2021/11/05 11:49:34;;;;;;;1999.90;999.90;;;12.60;99.90;;;;;;5043228;28;20440;-73
2021/11/05 11:52:01;;;;;;;1999.90;999.90;;;12.60;99.90;;;;;;5049946;28;20452;-73
2021/11/05 11:54:33;;;;;;;1999.90;999.90;;;12.50;99.90;;;;;;5051909;28;20402;-71
2021/11/05 11:57:17;;;;;;;1999.90;999.90;;;12.40;99.90;;;;;;5048232;28;20421;-72
2021/11/05 11:59:46;;;;;;;1999.90;999.90;;;12.50;99.90;;;;;;5050112;28;20419;-73
2021/11/05 12:02:37;;;;;;;1999.90;999.90;;;12.60;99.90;;;;;;5050551;28;20564;-73
2021/11/05 12:05:25;;;;;;;1999.90;999.90;;;12.90;99.90;;;;;;5049392;28;20406;-73